sensor_id;sensor_type;location;lat;lon;timestamp;P1;durP1;ratioP1;P2;durP2;ratioP2
6537;SDS011;3302;52.508;13.454;2023-02-01T00:01:44;9.07;;;2.30;;
6537;SDS011;3302;52.508;13.454;2023-02-01T00:04:10;7.57;;;1.87;;
6537;SDS011;3302;52.508;13.454;2023-02-01T00:06:36;9.63;;;3.00;;
6537;SDS011;3302;52.508;13.454;2023-02-01T00:09:02;10.07;;;2.33;;
6537;SDS011;3302;52.508;13.454;2023-02-01T00:11:28;11.27;;;2.90;;
6537;SDS011;3302;52.508;13.454;2023-02-01T00:13:53;11.30;;;3.10;;
6537;SDS011;3302;52.508;13.454;2023-02-01T00:16:21;12.77;;;3.00;;
6537;SDS011;3302;52.508;13.454;2023-02-01T00:18:50;14.77;;;3.40;;
6537;SDS011;3302;52.508;13.454;2023-02-01T00:21:18;14.97;;;3.93;;
6537;SDS011;3302;52.508;13.454;2023-02-01T00:23:45;11.17;;;2.90;;
6537;SDS011;3302;52.508;13.454;2023-02-01T00:26:13;13.00;;;3.33;;
6537;SDS011;3302;52.508;13.454;2023-02-01T00:28:41;14.10;;;3.43;;
6537;SDS011;3302;52.508;13.454;2023-02-01T00:31:07;13.63;;;2.67;;
6537;SDS011;3302;52.508;13.454;2023-02-01T00:33:33;12.70;;;3.50;;
6537;SDS011;3302;52.508;13.454;2023-02-01T00:36:03;12.40;;;4.00;;
6537;SDS011;3302;52.508;13.454;2023-02-01T00:38:31;6.33;;;2.83;;
6537;SDS011;3302;52.508;13.454;2023-02-01T00:41:09;9.57;;;2.80;;
6537;SDS011;3302;52.508;13.454;2023-02-01T00:43:37;14.10;;;3.07;;
6537;SDS011;3302;52.508;13.454;2023-02-01T00:46:03;13.30;;;3.00;;
6537;SDS011;3302;52.508;13.454;2023-02-01T00:48:29;11.90;;;3.27;;
6537;SDS011;3302;52.508;13.454;2023-02-01T00:51:19;12.93;;;3.10;;
6537;SDS011;3302;52.508;13.454;2023-02-01T00:53:43;12.63;;;2.60;;
6537;SDS011;3302;52.508;13.454;2023-02-01T00:56:09;7.83;;;2.30;;
6537;SDS011;3302;52.508;13.454;2023-02-01T00:58:35;9.20;;;2.40;;
6537;SDS011;3302;52.508;13.454;2023-02-01T01:01:08;10.80;;;2.73;;
6537;SDS011;3302;52.508;13.454;2023-02-01T01:03:37;10.70;;;2.60;;
6537;SDS011;3302;52.508;13.454;2023-02-01T01:06:08;6.40;;;2.30;;
6537;SDS011;3302;52.508;13.454;2023-02-01T01:08:35;9.03;;;2.20;;
6537;SDS011;3302;52.508;13.454;2023-02-01T01:11:21;5.63;;;2.27;;
6537;SDS011;3302;52.508;13.454;2023-02-01T01:13:49;11.77;;;2.37;;
6537;SDS011;3302;52.508;13.454;2023-02-01T01:16:16;9.43;;;2.03;;
6537;SDS011;3302;52.508;13.454;2023-02-01T01:18:43;8.87;;;2.63;;
6537;SDS011;3302;52.508;13.454;2023-02-01T01:21:10;10.57;;;2.27;;
6537;SDS011;3302;52.508;13.454;2023-02-01T01:23:38;6.60;;;2.00;;
6537;SDS011;3302;52.508;13.454;2023-02-01T01:26:04;8.13;;;2.30;;
6537;SDS011;3302;52.508;13.454;2023-02-01T01:28:32;9.10;;;2.83;;
6537;SDS011;3302;52.508;13.454;2023-02-01T01:30:57;10.70;;;2.30;;
6537;SDS011;3302;52.508;13.454;2023-02-01T01:33:23;9.47;;;2.00;;
6537;SDS011;3302;52.508;13.454;2023-02-01T01:35:49;9.10;;;2.33;;
6537;SDS011;3302;52.508;13.454;2023-02-01T01:38:15;13.07;;;2.80;;
6537;SDS011;3302;52.508;13.454;2023-02-01T01:40:44;11.70;;;2.67;;
6537;SDS011;3302;52.508;13.454;2023-02-01T01:43:14;9.97;;;2.43;;
6537;SDS011;3302;52.508;13.454;2023-02-01T01:45:42;10.70;;;2.40;;
6537;SDS011;3302;52.508;13.454;2023-02-01T01:48:09;10.77;;;2.60;;
6537;SDS011;3302;52.508;13.454;2023-02-01T01:51:02;14.00;;;2.90;;
6537;SDS011;3302;52.508;13.454;2023-02-01T01:53:35;12.20;;;3.20;;
6537;SDS011;3302;52.508;13.454;2023-02-01T01:56:06;12.97;;;3.87;;
6537;SDS011;3302;52.508;13.454;2023-02-01T01:58:32;13.47;;;3.03;;
6537;SDS011;3302;52.508;13.454;2023-02-01T02:00:59;15.23;;;2.47;;
6537;SDS011;3302;52.508;13.454;2023-02-01T02:03:26;9.00;;;2.60;;
6537;SDS011;3302;52.508;13.454;2023-02-01T02:05:59;8.57;;;2.33;;
6537;SDS011;3302;52.508;13.454;2023-02-01T02:08:28;10.43;;;2.67;;
6537;SDS011;3302;52.508;13.454;2023-02-01T02:10:54;10.47;;;2.80;;
6537;SDS011;3302;52.508;13.454;2023-02-01T02:13:31;10.73;;;2.43;;
6537;SDS011;3302;52.508;13.454;2023-02-01T02:18:41;9.10;;;2.20;;
6537;SDS011;3302;52.508;13.454;2023-02-01T02:24:28;14.63;;;2.60;;
6537;SDS011;3302;52.508;13.454;2023-02-01T02:27:09;10.37;;;2.47;;
6537;SDS011;3302;52.508;13.454;2023-02-01T02:29:59;7.90;;;2.90;;
6537;SDS011;3302;52.508;13.454;2023-02-01T02:32:41;7.87;;;2.40;;
6537;SDS011;3302;52.508;13.454;2023-02-01T02:35:19;9.90;;;2.63;;
6537;SDS011;3302;52.508;13.454;2023-02-01T02:38:15;10.03;;;2.50;;
6537;SDS011;3302;52.508;13.454;2023-02-01T02:41:10;12.07;;;2.27;;
6537;SDS011;3302;52.508;13.454;2023-02-01T02:44:47;9.53;;;3.47;;
6537;SDS011;3302;52.508;13.454;2023-02-01T02:47:13;12.70;;;2.80;;
6537;SDS011;3302;52.508;13.454;2023-02-01T02:49:49;10.77;;;2.63;;
6537;SDS011;3302;52.508;13.454;2023-02-01T02:52:48;10.27;;;2.50;;
6537;SDS011;3302;52.508;13.454;2023-02-01T02:55:51;12.10;;;2.63;;
6537;SDS011;3302;52.508;13.454;2023-02-01T02:58:17;10.30;;;2.60;;
6537;SDS011;3302;52.508;13.454;2023-02-01T03:01:03;15.23;;;2.93;;
6537;SDS011;3302;52.508;13.454;2023-02-01T03:03:48;15.60;;;2.50;;
6537;SDS011;3302;52.508;13.454;2023-02-01T03:06:33;9.53;;;2.80;;
6537;SDS011;3302;52.508;13.454;2023-02-01T03:09:00;7.53;;;2.43;;
6537;SDS011;3302;52.508;13.454;2023-02-01T03:11:28;13.40;;;3.00;;
6537;SDS011;3302;52.508;13.454;2023-02-01T03:14:16;11.50;;;3.00;;
6537;SDS011;3302;52.508;13.454;2023-02-01T03:16:47;6.00;;;1.97;;
6537;SDS011;3302;52.508;13.454;2023-02-01T03:24:39;11.03;;;3.00;;
6537;SDS011;3302;52.508;13.454;2023-02-01T03:27:10;10.27;;;2.20;;
6537;SDS011;3302;52.508;13.454;2023-02-01T03:29:50;12.03;;;2.67;;
6537;SDS011;3302;52.508;13.454;2023-02-01T03:32:21;15.57;;;3.47;;
6537;SDS011;3302;52.508;13.454;2023-02-01T03:34:47;9.37;;;2.57;;
6537;SDS011;3302;52.508;13.454;2023-02-01T03:37:16;9.90;;;2.23;;
6537;SDS011;3302;52.508;13.454;2023-02-01T03:39:49;9.00;;;2.70;;
6537;SDS011;3302;52.508;13.454;2023-02-01T03:42:35;12.83;;;3.10;;
6537;SDS011;3302;52.508;13.454;2023-02-01T03:45:08;14.43;;;3.13;;
6537;SDS011;3302;52.508;13.454;2023-02-01T03:47:42;12.83;;;3.33;;
6537;SDS011;3302;52.508;13.454;2023-02-01T03:50:13;12.73;;;2.90;;
6537;SDS011;3302;52.508;13.454;2023-02-01T03:52:43;14.93;;;3.10;;
6537;SDS011;3302;52.508;13.454;2023-02-01T03:55:16;9.67;;;3.13;;
6537;SDS011;3302;52.508;13.454;2023-02-01T03:57:50;11.40;;;2.97;;
6537;SDS011;3302;52.508;13.454;2023-02-01T04:00:23;13.07;;;2.87;;
6537;SDS011;3302;52.508;13.454;2023-02-01T04:02:51;12.17;;;3.23;;
6537;SDS011;3302;52.508;13.454;2023-02-01T04:05:17;11.67;;;3.43;;
6537;SDS011;3302;52.508;13.454;2023-02-01T04:07:43;9.47;;;2.53;;
6537;SDS011;3302;52.508;13.454;2023-02-01T04:10:09;8.60;;;2.50;;
6537;SDS011;3302;52.508;13.454;2023-02-01T04:12:36;13.17;;;2.43;;
6537;SDS011;3302;52.508;13.454;2023-02-01T04:15:02;12.23;;;2.90;;
6537;SDS011;3302;52.508;13.454;2023-02-01T04:17:28;12.60;;;3.53;;
6537;SDS011;3302;52.508;13.454;2023-02-01T04:19:54;13.00;;;2.37;;
6537;SDS011;3302;52.508;13.454;2023-02-01T04:22:20;14.17;;;3.13;;
6537;SDS011;3302;52.508;13.454;2023-02-01T04:24:46;12.00;;;2.53;;
6537;SDS011;3302;52.508;13.454;2023-02-01T04:27:12;15.77;;;3.27;;
6537;SDS011;3302;52.508;13.454;2023-02-01T04:29:38;9.73;;;3.10;;
6537;SDS011;3302;52.508;13.454;2023-02-01T04:32:04;14.23;;;3.90;;
6537;SDS011;3302;52.508;13.454;2023-02-01T04:34:30;15.60;;;3.50;;
6537;SDS011;3302;52.508;13.454;2023-02-01T04:36:56;12.83;;;3.40;;
6537;SDS011;3302;52.508;13.454;2023-02-01T04:39:22;12.77;;;3.50;;
6537;SDS011;3302;52.508;13.454;2023-02-01T04:41:47;12.37;;;2.90;;
6537;SDS011;3302;52.508;13.454;2023-02-01T04:44:14;5.23;;;2.00;;
6537;SDS011;3302;52.508;13.454;2023-02-01T04:46:41;14.93;;;3.60;;
6537;SDS011;3302;52.508;13.454;2023-02-01T04:49:10;13.83;;;2.77;;
6537;SDS011;3302;52.508;13.454;2023-02-01T04:51:37;12.23;;;3.00;;
6537;SDS011;3302;52.508;13.454;2023-02-01T04:54:03;14.77;;;3.50;;
6537;SDS011;3302;52.508;13.454;2023-02-01T04:56:29;16.40;;;4.13;;
6537;SDS011;3302;52.508;13.454;2023-02-01T04:58:55;12.73;;;3.27;;
6537;SDS011;3302;52.508;13.454;2023-02-01T05:01:21;8.97;;;2.87;;
6537;SDS011;3302;52.508;13.454;2023-02-01T05:03:48;14.47;;;3.17;;
6537;SDS011;3302;52.508;13.454;2023-02-01T05:06:14;10.67;;;3.40;;
6537;SDS011;3302;52.508;13.454;2023-02-01T05:08:39;16.27;;;3.70;;
6537;SDS011;3302;52.508;13.454;2023-02-01T05:11:05;12.20;;;3.40;;
6537;SDS011;3302;52.508;13.454;2023-02-01T05:13:31;9.93;;;2.93;;
6537;SDS011;3302;52.508;13.454;2023-02-01T05:16:15;12.53;;;3.13;;
6537;SDS011;3302;52.508;13.454;2023-02-01T05:18:42;15.87;;;3.20;;
6537;SDS011;3302;52.508;13.454;2023-02-01T05:21:08;18.53;;;3.87;;
6537;SDS011;3302;52.508;13.454;2023-02-01T05:23:33;9.40;;;2.53;;
6537;SDS011;3302;52.508;13.454;2023-02-01T05:26:19;12.03;;;3.53;;
6537;SDS011;3302;52.508;13.454;2023-02-01T05:28:45;13.67;;;3.10;;
6537;SDS011;3302;52.508;13.454;2023-02-01T05:31:11;14.23;;;3.80;;
6537;SDS011;3302;52.508;13.454;2023-02-01T05:33:36;15.40;;;2.80;;
6537;SDS011;3302;52.508;13.454;2023-02-01T05:36:02;11.77;;;2.77;;
6537;SDS011;3302;52.508;13.454;2023-02-01T05:38:28;15.00;;;3.23;;
6537;SDS011;3302;52.508;13.454;2023-02-01T05:40:57;18.80;;;3.60;;
6537;SDS011;3302;52.508;13.454;2023-02-01T05:43:23;14.87;;;3.20;;
6537;SDS011;3302;52.508;13.454;2023-02-01T05:45:48;10.00;;;2.93;;
6537;SDS011;3302;52.508;13.454;2023-02-01T05:48:16;7.40;;;2.97;;
6537;SDS011;3302;52.508;13.454;2023-02-01T05:50:42;18.00;;;3.20;;
6537;SDS011;3302;52.508;13.454;2023-02-01T05:53:09;13.53;;;4.77;;
6537;SDS011;3302;52.508;13.454;2023-02-01T05:55:35;10.00;;;2.97;;
6537;SDS011;3302;52.508;13.454;2023-02-01T05:58:01;10.77;;;4.27;;
6537;SDS011;3302;52.508;13.454;2023-02-01T06:00:27;12.77;;;2.77;;
6537;SDS011;3302;52.508;13.454;2023-02-01T06:02:53;16.20;;;3.07;;
6537;SDS011;3302;52.508;13.454;2023-02-01T06:05:19;12.77;;;3.20;;
6537;SDS011;3302;52.508;13.454;2023-02-01T06:07:44;9.13;;;2.40;;
6537;SDS011;3302;52.508;13.454;2023-02-01T06:10:10;13.17;;;3.97;;
6537;SDS011;3302;52.508;13.454;2023-02-01T06:12:36;16.40;;;3.67;;
6537;SDS011;3302;52.508;13.454;2023-02-01T06:15:02;13.00;;;2.90;;
6537;SDS011;3302;52.508;13.454;2023-02-01T06:17:28;9.93;;;3.10;;
6537;SDS011;3302;52.508;13.454;2023-02-01T06:19:54;12.67;;;2.60;;
6537;SDS011;3302;52.508;13.454;2023-02-01T06:22:20;16.80;;;3.73;;
6537;SDS011;3302;52.508;13.454;2023-02-01T06:24:46;15.43;;;3.20;;
6537;SDS011;3302;52.508;13.454;2023-02-01T06:27:12;10.87;;;3.10;;
6537;SDS011;3302;52.508;13.454;2023-02-01T06:29:39;9.50;;;3.63;;
6537;SDS011;3302;52.508;13.454;2023-02-01T06:32:05;11.73;;;3.17;;
6537;SDS011;3302;52.508;13.454;2023-02-01T06:34:31;12.67;;;3.47;;
6537;SDS011;3302;52.508;13.454;2023-02-01T06:36:57;11.13;;;2.63;;
6537;SDS011;3302;52.508;13.454;2023-02-01T06:39:22;13.97;;;3.17;;
6537;SDS011;3302;52.508;13.454;2023-02-01T06:41:48;11.07;;;2.90;;
6537;SDS011;3302;52.508;13.454;2023-02-01T06:44:15;10.10;;;2.87;;
6537;SDS011;3302;52.508;13.454;2023-02-01T06:46:42;11.97;;;4.13;;
6537;SDS011;3302;52.508;13.454;2023-02-01T06:49:08;8.37;;;2.90;;
6537;SDS011;3302;52.508;13.454;2023-02-01T06:51:34;7.73;;;2.60;;
6537;SDS011;3302;52.508;13.454;2023-02-01T06:54:00;11.90;;;3.50;;
6537;SDS011;3302;52.508;13.454;2023-02-01T06:56:26;12.03;;;3.33;;
6537;SDS011;3302;52.508;13.454;2023-02-01T06:58:52;8.83;;;2.70;;
6537;SDS011;3302;52.508;13.454;2023-02-01T07:01:18;10.77;;;2.60;;
6537;SDS011;3302;52.508;13.454;2023-02-01T07:03:50;11.13;;;2.93;;
6537;SDS011;3302;52.508;13.454;2023-02-01T07:06:16;15.50;;;3.80;;
6537;SDS011;3302;52.508;13.454;2023-02-01T07:08:43;13.33;;;3.70;;
6537;SDS011;3302;52.508;13.454;2023-02-01T07:11:10;10.87;;;3.27;;
6537;SDS011;3302;52.508;13.454;2023-02-01T07:13:37;9.90;;;2.43;;
6537;SDS011;3302;52.508;13.454;2023-02-01T07:16:04;12.13;;;3.67;;
6537;SDS011;3302;52.508;13.454;2023-02-01T07:18:32;14.30;;;3.47;;
6537;SDS011;3302;52.508;13.454;2023-02-01T07:20:58;10.50;;;3.63;;
6537;SDS011;3302;52.508;13.454;2023-02-01T07:23:25;13.00;;;3.80;;
6537;SDS011;3302;52.508;13.454;2023-02-01T07:25:55;13.23;;;3.37;;
6537;SDS011;3302;52.508;13.454;2023-02-01T07:28:23;12.57;;;3.07;;
6537;SDS011;3302;52.508;13.454;2023-02-01T07:30:50;12.57;;;2.50;;
6537;SDS011;3302;52.508;13.454;2023-02-01T07:33:20;12.43;;;3.50;;
6537;SDS011;3302;52.508;13.454;2023-02-01T07:35:47;9.93;;;3.53;;
6537;SDS011;3302;52.508;13.454;2023-02-01T07:38:14;11.23;;;2.87;;
6537;SDS011;3302;52.508;13.454;2023-02-01T07:40:41;12.90;;;3.07;;
6537;SDS011;3302;52.508;13.454;2023-02-01T07:43:07;11.23;;;3.33;;
6537;SDS011;3302;52.508;13.454;2023-02-01T07:45:34;8.80;;;2.90;;
6537;SDS011;3302;52.508;13.454;2023-02-01T07:48:01;11.03;;;3.17;;
6537;SDS011;3302;52.508;13.454;2023-02-01T07:50:27;11.80;;;3.90;;
6537;SDS011;3302;52.508;13.454;2023-02-01T07:52:54;11.53;;;3.20;;
6537;SDS011;3302;52.508;13.454;2023-02-01T07:55:20;13.37;;;3.40;;
6537;SDS011;3302;52.508;13.454;2023-02-01T07:57:46;13.07;;;3.00;;
6537;SDS011;3302;52.508;13.454;2023-02-01T08:00:12;6.00;;;2.17;;
6537;SDS011;3302;52.508;13.454;2023-02-01T08:02:57;10.23;;;2.83;;
6537;SDS011;3302;52.508;13.454;2023-02-01T08:05:26;10.03;;;2.97;;
6537;SDS011;3302;52.508;13.454;2023-02-01T08:07:52;7.03;;;2.20;;
6537;SDS011;3302;52.508;13.454;2023-02-01T08:10:18;9.67;;;3.37;;
6537;SDS011;3302;52.508;13.454;2023-02-01T08:12:44;7.73;;;2.57;;
6537;SDS011;3302;52.508;13.454;2023-02-01T08:15:13;8.83;;;3.00;;
6537;SDS011;3302;52.508;13.454;2023-02-01T08:17:45;7.70;;;2.90;;
6537;SDS011;3302;52.508;13.454;2023-02-01T08:20:13;6.43;;;2.87;;
6537;SDS011;3302;52.508;13.454;2023-02-01T08:22:39;9.53;;;4.03;;
6537;SDS011;3302;52.508;13.454;2023-02-01T08:25:05;9.83;;;2.87;;
6537;SDS011;3302;52.508;13.454;2023-02-01T08:27:34;6.93;;;2.67;;
6537;SDS011;3302;52.508;13.454;2023-02-01T08:30:00;7.80;;;2.40;;
6537;SDS011;3302;52.508;13.454;2023-02-01T08:32:27;8.47;;;3.07;;
6537;SDS011;3302;52.508;13.454;2023-02-01T08:34:53;9.70;;;2.70;;
6537;SDS011;3302;52.508;13.454;2023-02-01T08:37:19;5.83;;;2.40;;
6537;SDS011;3302;52.508;13.454;2023-02-01T08:39:45;6.60;;;2.40;;
6537;SDS011;3302;52.508;13.454;2023-02-01T08:42:12;8.40;;;2.30;;
6537;SDS011;3302;52.508;13.454;2023-02-01T08:44:56;7.13;;;2.83;;
6537;SDS011;3302;52.508;13.454;2023-02-01T08:47:22;5.03;;;2.30;;
6537;SDS011;3302;52.508;13.454;2023-02-01T08:49:48;8.17;;;2.73;;
6537;SDS011;3302;52.508;13.454;2023-02-01T08:52:14;5.40;;;2.40;;
6537;SDS011;3302;52.508;13.454;2023-02-01T08:54:39;5.87;;;2.43;;
6537;SDS011;3302;52.508;13.454;2023-02-01T08:57:07;6.50;;;2.77;;
6537;SDS011;3302;52.508;13.454;2023-02-01T08:59:32;6.57;;;2.30;;
6537;SDS011;3302;52.508;13.454;2023-02-01T09:01:58;6.53;;;2.23;;
6537;SDS011;3302;52.508;13.454;2023-02-01T09:04:24;3.53;;;2.00;;
6537;SDS011;3302;52.508;13.454;2023-02-01T09:06:50;4.87;;;2.50;;
6537;SDS011;3302;52.508;13.454;2023-02-01T09:09:15;5.47;;;2.47;;
6537;SDS011;3302;52.508;13.454;2023-02-01T09:11:41;3.87;;;2.10;;
6537;SDS011;3302;52.508;13.454;2023-02-01T09:14:07;4.90;;;2.07;;
6537;SDS011;3302;52.508;13.454;2023-02-01T09:16:32;2.93;;;2.03;;
6537;SDS011;3302;52.508;13.454;2023-02-01T09:18:58;8.60;;;2.30;;
6537;SDS011;3302;52.508;13.454;2023-02-01T09:21:24;7.97;;;3.00;;
6537;SDS011;3302;52.508;13.454;2023-02-01T09:23:50;3.60;;;1.80;;
6537;SDS011;3302;52.508;13.454;2023-02-01T09:26:16;4.53;;;1.90;;
6537;SDS011;3302;52.508;13.454;2023-02-01T09:28:42;4.10;;;1.60;;
6537;SDS011;3302;52.508;13.454;2023-02-01T09:31:08;3.77;;;1.60;;
6537;SDS011;3302;52.508;13.454;2023-02-01T09:33:34;2.77;;;1.63;;
6537;SDS011;3302;52.508;13.454;2023-02-01T09:36:01;3.17;;;1.50;;
6537;SDS011;3302;52.508;13.454;2023-02-01T09:38:30;4.87;;;1.90;;
6537;SDS011;3302;52.508;13.454;2023-02-01T09:40:56;4.40;;;1.80;;
6537;SDS011;3302;52.508;13.454;2023-02-01T09:45:55;2.77;;;1.60;;
6537;SDS011;3302;52.508;13.454;2023-02-01T09:48:34;4.37;;;1.30;;
6537;SDS011;3302;52.508;13.454;2023-02-01T09:51:04;3.67;;;1.70;;
6537;SDS011;3302;52.508;13.454;2023-02-01T09:53:38;2.80;;;1.07;;
6537;SDS011;3302;52.508;13.454;2023-02-01T09:56:18;3.50;;;1.50;;
6537;SDS011;3302;52.508;13.454;2023-02-01T10:01:16;2.47;;;1.40;;
6537;SDS011;3302;52.508;13.454;2023-02-01T10:03:46;5.57;;;1.77;;
6537;SDS011;3302;52.508;13.454;2023-02-01T10:22:27;5.10;;;1.70;;
6537;SDS011;3302;52.508;13.454;2023-02-01T10:25:46;4.53;;;1.63;;
6537;SDS011;3302;52.508;13.454;2023-02-01T10:27:59;5.33;;;1.50;;
6537;SDS011;3302;52.508;13.454;2023-02-01T10:30:31;2.60;;;1.30;;
6537;SDS011;3302;52.508;13.454;2023-02-01T10:33:14;3.80;;;1.30;;
6537;SDS011;3302;52.508;13.454;2023-02-01T10:35:40;3.80;;;1.67;;
6537;SDS011;3302;52.508;13.454;2023-02-01T10:38:09;4.67;;;1.57;;
6537;SDS011;3302;52.508;13.454;2023-02-01T10:40:47;6.93;;;1.93;;
6537;SDS011;3302;52.508;13.454;2023-02-01T10:43:13;3.93;;;1.53;;
6537;SDS011;3302;52.508;13.454;2023-02-01T10:45:38;5.37;;;1.67;;
6537;SDS011;3302;52.508;13.454;2023-02-01T10:48:07;8.13;;;1.60;;
6537;SDS011;3302;52.508;13.454;2023-02-01T10:53:12;5.57;;;1.20;;
6537;SDS011;3302;52.508;13.454;2023-02-01T10:55:50;3.33;;;1.40;;
6537;SDS011;3302;52.508;13.454;2023-02-01T10:58:26;4.63;;;1.37;;
6537;SDS011;3302;52.508;13.454;2023-02-01T11:01:01;5.23;;;1.50;;
6537;SDS011;3302;52.508;13.454;2023-02-01T11:03:51;3.87;;;1.40;;
6537;SDS011;3302;52.508;13.454;2023-02-01T11:08:50;4.30;;;1.60;;
6537;SDS011;3302;52.508;13.454;2023-02-01T11:11:18;3.90;;;1.60;;
6537;SDS011;3302;52.508;13.454;2023-02-01T11:13:44;5.93;;;1.80;;
6537;SDS011;3302;52.508;13.454;2023-02-01T11:16:18;4.67;;;1.53;;
6537;SDS011;3302;52.508;13.454;2023-02-01T11:18:44;5.03;;;1.63;;
6537;SDS011;3302;52.508;13.454;2023-02-01T11:21:10;6.90;;;2.07;;
6537;SDS011;3302;52.508;13.454;2023-02-01T11:23:40;3.97;;;1.90;;
6537;SDS011;3302;52.508;13.454;2023-02-01T11:26:14;4.93;;;1.77;;
6537;SDS011;3302;52.508;13.454;2023-02-01T11:31:30;8.07;;;1.97;;
6537;SDS011;3302;52.508;13.454;2023-02-01T11:33:59;5.80;;;1.80;;
6537;SDS011;3302;52.508;13.454;2023-02-01T11:36:42;7.30;;;2.10;;
6537;SDS011;3302;52.508;13.454;2023-02-01T11:42:00;5.77;;;2.10;;
6537;SDS011;3302;52.508;13.454;2023-02-01T11:45:38;5.50;;;2.07;;
6537;SDS011;3302;52.508;13.454;2023-02-01T11:47:44;9.60;;;2.30;;
6537;SDS011;3302;52.508;13.454;2023-02-01T11:50:18;7.07;;;1.93;;
6537;SDS011;3302;52.508;13.454;2023-02-01T12:01:02;5.03;;;1.83;;
6537;SDS011;3302;52.508;13.454;2023-02-01T12:06:42;4.10;;;1.67;;
6537;SDS011;3302;52.508;13.454;2023-02-01T12:09:21;11.73;;;3.47;;
6537;SDS011;3302;52.508;13.454;2023-02-01T12:17:51;5.27;;;1.90;;
6537;SDS011;3302;52.508;13.454;2023-02-01T12:23:44;7.37;;;2.33;;
6537;SDS011;3302;52.508;13.454;2023-02-01T12:26:32;9.80;;;2.43;;
6537;SDS011;3302;52.508;13.454;2023-02-01T12:29:14;5.90;;;2.20;;
6537;SDS011;3302;52.508;13.454;2023-02-01T12:39:49;7.77;;;2.20;;
6537;SDS011;3302;52.508;13.454;2023-02-01T12:42:40;2.43;;;1.27;;
6537;SDS011;3302;52.508;13.454;2023-02-01T12:45:31;5.47;;;2.07;;
6537;SDS011;3302;52.508;13.454;2023-02-01T12:48:00;6.07;;;1.80;;
6537;SDS011;3302;52.508;13.454;2023-02-01T12:50:43;6.73;;;1.80;;
6537;SDS011;3302;52.508;13.454;2023-02-01T12:56:30;5.33;;;1.60;;
6537;SDS011;3302;52.508;13.454;2023-02-01T12:59:01;4.63;;;1.80;;
6537;SDS011;3302;52.508;13.454;2023-02-01T13:04:07;6.43;;;2.20;;
6537;SDS011;3302;52.508;13.454;2023-02-01T13:06:53;9.37;;;2.50;;
6537;SDS011;3302;52.508;13.454;2023-02-01T13:09:43;4.50;;;1.73;;
6537;SDS011;3302;52.508;13.454;2023-02-01T13:12:24;6.27;;;2.03;;
6537;SDS011;3302;52.508;13.454;2023-02-01T13:15:00;8.33;;;2.40;;
6537;SDS011;3302;52.508;13.454;2023-02-01T13:17:36;4.30;;;2.00;;
6537;SDS011;3302;52.508;13.454;2023-02-01T13:20:06;4.63;;;1.73;;
6537;SDS011;3302;52.508;13.454;2023-02-01T13:22:40;6.70;;;1.80;;
6537;SDS011;3302;52.508;13.454;2023-02-01T13:25:13;6.17;;;1.97;;
6537;SDS011;3302;52.508;13.454;2023-02-01T13:27:59;8.60;;;2.20;;
6537;SDS011;3302;52.508;13.454;2023-02-01T13:30:38;5.37;;;1.90;;
6537;SDS011;3302;52.508;13.454;2023-02-01T13:42:01;6.37;;;2.10;;
6537;SDS011;3302;52.508;13.454;2023-02-01T13:44:36;6.73;;;1.80;;
6537;SDS011;3302;52.508;13.454;2023-02-01T13:52:58;7.93;;;2.03;;
6537;SDS011;3302;52.508;13.454;2023-02-01T13:55:27;7.20;;;2.00;;
6537;SDS011;3302;52.508;13.454;2023-02-01T13:58:00;4.57;;;1.80;;
6537;SDS011;3302;52.508;13.454;2023-02-01T14:00:36;5.07;;;1.63;;
6537;SDS011;3302;52.508;13.454;2023-02-01T14:08:14;6.90;;;2.53;;
6537;SDS011;3302;52.508;13.454;2023-02-01T14:10:55;7.53;;;2.17;;
6537;SDS011;3302;52.508;13.454;2023-02-01T14:21:27;7.07;;;2.07;;
6537;SDS011;3302;52.508;13.454;2023-02-01T14:29:00;8.17;;;2.37;;
6537;SDS011;3302;52.508;13.454;2023-02-01T14:31:33;8.37;;;2.73;;
6537;SDS011;3302;52.508;13.454;2023-02-01T14:34:05;11.03;;;2.70;;
6537;SDS011;3302;52.508;13.454;2023-02-01T14:36:42;8.03;;;2.80;;
6537;SDS011;3302;52.508;13.454;2023-02-01T14:42:05;7.00;;;2.60;;
6537;SDS011;3302;52.508;13.454;2023-02-01T14:44:40;7.10;;;2.70;;
6537;SDS011;3302;52.508;13.454;2023-02-01T14:47:10;10.53;;;2.70;;
6537;SDS011;3302;52.508;13.454;2023-02-01T14:50:13;5.93;;;2.47;;
6537;SDS011;3302;52.508;13.454;2023-02-01T15:00:54;6.57;;;2.07;;
6537;SDS011;3302;52.508;13.454;2023-02-01T15:03:24;7.57;;;3.00;;
6537;SDS011;3302;52.508;13.454;2023-02-01T15:08:49;7.37;;;2.03;;
6537;SDS011;3302;52.508;13.454;2023-02-01T15:11:17;5.93;;;2.10;;
6537;SDS011;3302;52.508;13.454;2023-02-01T15:13:50;5.57;;;2.30;;
6537;SDS011;3302;52.508;13.454;2023-02-01T15:16:19;6.80;;;1.37;;
6537;SDS011;3302;52.508;13.454;2023-02-01T15:18:47;2.57;;;1.50;;
6537;SDS011;3302;52.508;13.454;2023-02-01T15:21:17;3.93;;;1.63;;
6537;SDS011;3302;52.508;13.454;2023-02-01T15:23:44;3.63;;;1.20;;
6537;SDS011;3302;52.508;13.454;2023-02-01T15:26:30;4.87;;;1.50;;
6537;SDS011;3302;52.508;13.454;2023-02-01T15:28:57;1.97;;;1.10;;
6537;SDS011;3302;52.508;13.454;2023-02-01T15:34:00;4.57;;;1.50;;
6537;SDS011;3302;52.508;13.454;2023-02-01T15:36:26;4.23;;;1.50;;
6537;SDS011;3302;52.508;13.454;2023-02-01T15:41:55;2.90;;;1.43;;
6537;SDS011;3302;52.508;13.454;2023-02-01T15:44:28;1.03;;;0.90;;
6537;SDS011;3302;52.508;13.454;2023-02-01T15:46:57;2.83;;;1.23;;
6537;SDS011;3302;52.508;13.454;2023-02-01T15:49:25;2.00;;;1.10;;
6537;SDS011;3302;52.508;13.454;2023-02-01T15:51:54;5.07;;;1.60;;
6537;SDS011;3302;52.508;13.454;2023-02-01T15:54:26;2.17;;;1.00;;
6537;SDS011;3302;52.508;13.454;2023-02-01T15:57:00;2.90;;;1.20;;
6537;SDS011;3302;52.508;13.454;2023-02-01T15:59:43;3.67;;;1.37;;
6537;SDS011;3302;52.508;13.454;2023-02-01T16:02:26;2.10;;;1.00;;
6537;SDS011;3302;52.508;13.454;2023-02-01T16:04:54;2.33;;;1.00;;
6537;SDS011;3302;52.508;13.454;2023-02-01T16:07:24;1.00;;;0.90;;
6537;SDS011;3302;52.508;13.454;2023-02-01T16:09:58;2.87;;;0.97;;
6537;SDS011;3302;52.508;13.454;2023-02-01T16:12:32;1.27;;;0.70;;
6537;SDS011;3302;52.508;13.454;2023-02-01T16:15:09;1.03;;;0.90;;
6537;SDS011;3302;52.508;13.454;2023-02-01T16:17:35;2.63;;;1.10;;
6537;SDS011;3302;52.508;13.454;2023-02-01T16:20:01;2.00;;;1.03;;
6537;SDS011;3302;52.508;13.454;2023-02-01T16:22:27;3.20;;;1.00;;
6537;SDS011;3302;52.508;13.454;2023-02-01T16:24:52;2.60;;;1.00;;
6537;SDS011;3302;52.508;13.454;2023-02-01T16:27:18;1.30;;;1.00;;
6537;SDS011;3302;52.508;13.454;2023-02-01T16:29:46;1.30;;;1.00;;
6537;SDS011;3302;52.508;13.454;2023-02-01T16:32:18;1.03;;;0.90;;
6537;SDS011;3302;52.508;13.454;2023-02-01T16:34:46;1.60;;;0.93;;
6537;SDS011;3302;52.508;13.454;2023-02-01T16:37:13;2.70;;;1.40;;
6537;SDS011;3302;52.508;13.454;2023-02-01T16:39:44;1.10;;;0.80;;
6537;SDS011;3302;52.508;13.454;2023-02-01T16:42:13;2.07;;;1.03;;
6537;SDS011;3302;52.508;13.454;2023-02-01T16:44:41;2.27;;;1.30;;
6537;SDS011;3302;52.508;13.454;2023-02-01T16:47:11;0.90;;;0.73;;
6537;SDS011;3302;52.508;13.454;2023-02-01T16:49:43;0.80;;;0.70;;
6537;SDS011;3302;52.508;13.454;2023-02-01T16:52:12;1.27;;;1.07;;
6537;SDS011;3302;52.508;13.454;2023-02-01T16:54:49;1.43;;;0.80;;
6537;SDS011;3302;52.508;13.454;2023-02-01T16:57:15;3.47;;;1.23;;
6537;SDS011;3302;52.508;13.454;2023-02-01T16:59:43;3.97;;;1.17;;
6537;SDS011;3302;52.508;13.454;2023-02-01T17:02:10;1.47;;;1.00;;
6537;SDS011;3302;52.508;13.454;2023-02-01T17:04:40;4.37;;;1.40;;
6537;SDS011;3302;52.508;13.454;2023-02-01T17:07:07;1.97;;;1.00;;
6537;SDS011;3302;52.508;13.454;2023-02-01T17:09:37;1.87;;;1.13;;
6537;SDS011;3302;52.508;13.454;2023-02-01T17:12:04;3.67;;;1.60;;
6537;SDS011;3302;52.508;13.454;2023-02-01T17:14:31;2.10;;;1.20;;
6537;SDS011;3302;52.508;13.454;2023-02-01T17:17:01;4.50;;;1.47;;
6537;SDS011;3302;52.508;13.454;2023-02-01T17:19:27;2.27;;;1.13;;
6537;SDS011;3302;52.508;13.454;2023-02-01T17:21:53;2.63;;;1.07;;
6537;SDS011;3302;52.508;13.454;2023-02-01T17:24:24;2.90;;;1.90;;
6537;SDS011;3302;52.508;13.454;2023-02-01T17:26:52;5.97;;;2.43;;